Time;durP1;ratioP1;P1;durP2;ratioP2;P2;SDS_P1;SDS_P2;PMS_P1;PMS_P2;Temp;Humidity;BMP_temperature;BMP_pressure;BME280_temperature;BME280_humidity;BME280_pressure;Samples;Min_cycle;Max_cycle;Signal;HPM_P1;HPM_P2
2023/03/08 00:00:13;;;;;;;0.00;0.00;;;-0.20;99.90;;;;;;5084784;28;20047;-79
2023/03/08 00:02:38;;;;;;;0.10;0.10;;;-0.80;99.90;;;;;;5113830;28;20055;-79
2023/03/08 00:05:05;;;;;;;0.10;0.10;;;-0.90;99.90;;;;;;5115490;27;20040;-79
2023/03/08 00:07:31;;;;;;;0.00;0.00;;;-0.90;99.90;;;;;;5112400;27;20043;-79
2023/03/08 00:09:57;;;;;;;0.10;0.10;;;-0.90;99.90;;;;;;5111590;28;20056;-79
2023/03/08 00:12:23;;;;;;;0.15;0.10;;;-0.90;99.90;;;;;;5113795;28;20511;-78
2023/03/08 00:14:49;;;;;;;0.00;0.00;;;-0.90;99.90;;;;;;5115620;27;20424;-79
2023/03/08 00:17:15;;;;;;;0.17;0.10;;;-0.90;99.90;;;;;;5115000;27;20710;-79
2023/03/08 00:19:41;;;;;;;0.20;0.20;;;-0.90;99.90;;;;;;5134038;27;20043;-79
2023/03/08 00:22:07;;;;;;;0.00;0.00;;;-0.90;99.90;;;;;;5117194;27;20046;-79
2023/03/08 00:24:33;;;;;;;0.10;0.10;;;0.00;99.90;;;;;;5117469;27;20511;-78
2023/03/08 00:27:02;;;;;;;0.43;0.40;;;-0.90;99.90;;;;;;5130444;27;20469;-79
2023/03/08 00:29:28;;;;;;;0.10;0.10;;;-0.90;99.90;;;;;;5103112;27;20043;-79
2023/03/08 00:31:54;;;;;;;0.00;0.00;;;0.30;99.90;;;;;;5116628;27;20113;-78
2023/03/08 00:34:20;;;;;;;0.00;0.00;;;-0.90;99.90;;;;;;5117172;27;20497;-79
2023/03/08 00:36:45;;;;;;;0.10;0.10;;;-1.00;99.90;;;;;;5116832;27;20091;-79
2023/03/08 00:39:13;;;;;;;0.00;0.00;;;-1.00;99.90;;;;;;5114461;27;20054;-79
2023/03/08 00:41:39;;;;;;;0.03;0.03;;;-1.00;99.90;;;;;;5095413;28;20046;-81
2023/03/08 00:44:05;;;;;;;0.10;0.10;;;-1.00;99.90;;;;;;5111481;27;20046;-79
2023/03/08 00:46:31;;;;;;;0.22;0.20;;;-1.00;99.90;;;;;;5115683;27;20303;-78
2023/03/08 00:48:57;;;;;;;0.03;0.03;;;-1.00;99.90;;;;;;5099206;27;20108;-79
2023/03/08 00:51:23;;;;;;;0.13;0.13;;;0.20;99.90;;;;;;5077583;28;20048;-79
2023/03/08 00:53:49;;;;;;;0.00;0.00;;;-1.10;99.90;;;;;;5129652;27;20050;-79
2023/03/08 00:56:15;;;;;;;0.10;0.10;;;-0.60;99.90;;;;;;5114289;28;20124;-79
2023/03/08 00:58:43;;;;;;;1.13;0.40;;;-0.20;99.90;;;;;;5146756;27;20486;-81
2023/03/08 01:01:14;;;;;;;0.00;0.00;;;-1.10;99.90;;;;;;5130624;27;20512;-79
2023/03/08 01:03:39;;;;;;;0.00;0.00;;;-0.20;99.90;;;;;;5120069;27;20070;-81
2023/03/08 01:06:08;;;;;;;0.00;0.00;;;-1.20;99.90;;;;;;5096108;28;20043;-79
2023/03/08 01:08:33;;;;;;;0.00;0.00;;;-1.20;99.90;;;;;;5112889;28;20112;-79
2023/03/08 01:10:59;;;;;;;0.03;0.03;;;-1.20;99.90;;;;;;5146461;27;20474;-79
2023/03/08 01:13:28;;;;;;;0.10;0.10;;;-0.60;99.90;;;;;;5112913;28;20051;-79
2023/03/08 01:15:54;;;;;;;0.47;0.20;;;-1.30;99.90;;;;;;5124277;27;20122;-79
2023/03/08 01:18:20;;;;;;;0.07;0.07;;;-0.90;99.90;;;;;;5133437;27;20130;-79
2023/03/08 01:20:54;;;;;;;0.00;0.00;;;-1.30;99.90;;;;;;5081991;27;20043;-79
2023/03/08 01:23:21;;;;;;;0.43;0.43;;;-0.30;99.90;;;;;;5133488;27;20401;-79
2023/03/08 01:25:49;;;;;;;0.17;0.10;;;-1.20;99.90;;;;;;5128035;27;20047;-80
2023/03/08 01:28:15;;;;;;;0.10;0.10;;;-1.30;99.90;;;;;;5124548;27;20078;-79
2023/03/08 01:34:14;;;;;;;0.10;0.10;;;-1.00;99.90;;;;;;4993933;28;20046;-79
2023/03/08 01:36:39;;;;;;;0.10;0.10;;;-1.30;99.90;;;;;;5012808;28;20140;-79
2023/03/08 01:39:20;;;;;;;0.00;0.00;;;-1.30;99.90;;;;;;5028464;28;20531;-79
2023/03/08 01:41:46;;;;;;;0.23;0.17;;;-0.40;99.90;;;;;;5030041;28;20064;-81
2023/03/08 01:44:21;;;;;;;0.07;0.07;;;-1.30;99.90;;;;;;5065241;27;20051;-79
2023/03/08 01:46:47;;;;;;;0.00;0.00;;;-1.30;99.90;;;;;;5132524;27;20096;-82
2023/03/08 01:49:27;;;;;;;0.30;0.10;;;-0.60;99.90;;;;;;5124268;27;20394;-79
2023/03/08 01:51:58;;;;;;;0.00;0.00;;;-1.40;99.90;;;;;;5111883;28;20481;-79
2023/03/08 01:54:46;;;;;;;0.00;0.00;;;-0.50;99.90;;;;;;5111614;27;20122;-79
2023/03/08 01:57:19;;;;;;;0.30;0.30;;;-1.40;99.90;;;;;;5127013;27;20055;-79
2023/03/08 01:59:47;;;;;;;0.28;0.20;;;-0.50;99.90;;;;;;5128729;27;20039;-79
2023/03/08 02:02:13;;;;;;;0.00;0.00;;;-1.50;99.90;;;;;;5132279;27;20047;-79
2023/03/08 02:04:40;;;;;;;0.00;0.00;;;-1.50;99.90;;;;;;5132893;27;20043;-79
2023/03/08 02:07:05;;;;;;;2.63;0.10;;;-0.70;99.90;;;;;;5132144;27;20043;-79
2023/03/08 02:09:31;;;;;;;0.00;0.00;;;-1.60;99.90;;;;;;5130994;27;20063;-80
2023/03/08 02:12:02;;;;;;;0.20;0.20;;;-1.00;99.90;;;;;;5130352;28;20546;-79
2023/03/08 02:18:20;;;;;;;0.00;0.00;;;-1.60;99.90;;;;;;5065618;28;20039;-93
2023/03/08 02:21:04;;;;;;;0.10;0.10;;;-1.60;99.90;;;;;;5097809;28;20081;-93
2023/03/08 02:23:40;;;;;;;0.00;0.00;;;-1.50;99.90;;;;;;5097928;28;20079;-93
2023/03/08 02:33:29;;;;;;;;;;;;;;;;;;;;;
2023/03/08 02:36:00;;;;;;;0.70;0.38;;;-1.50;99.90;;;;;;5113185;28;20285;-94
2023/03/08 02:38:39;;;;;;;0.00;0.00;;;-0.90;99.90;;;;;;5113308;28;20052;-93
2023/03/08 02:41:38;;;;;;;0.30;0.30;;;-2.60;99.90;;;;;;5081124;28;20042;-94
2023/03/08 02:44:27;;;;;;;1.25;0.28;;;-0.30;99.90;;;;;;5096199;28;20063;-92
2023/03/08 02:47:04;;;;;;;0.32;0.32;;;-0.40;99.90;;;;;;5096942;28;20055;-93
2023/03/08 02:49:37;;;;;;;0.80;0.20;;;-1.70;99.90;;;;;;5095617;28;20036;-93
2023/03/08 02:52:06;;;;;;;1.23;0.28;;;-0.30;99.90;;;;;;5098965;28;20040;-93
2023/03/08 02:55:10;;;;;;;;;;;;;;;;;;;;;
2023/03/08 02:57:48;;;;;;;;;;;;;;;;;;;;;
2023/03/08 03:00:25;;;;;;;0.00;0.00;;;-0.50;99.90;;;;;;5099404;28;20043;-93
2023/03/08 03:03:10;;;;;;;0.43;0.40;;;-2.20;99.90;;;;;;5086101;27;20051;-93
2023/03/08 03:05:43;;;;;;;0.10;0.10;;;-1.80;99.90;;;;;;5103599;27;20065;-92
2023/03/08 03:16:01;;;;;;;0.93;0.50;;;-1.80;99.90;;;;;;5137996;27;20136;-95
2023/03/08 03:18:31;;;;;;;0.40;0.40;;;-1.80;99.90;;;;;;5137000;27;20050;-92
2023/03/08 03:21:13;;;;;;;;;;;;;;;;;;;;;
2023/03/08 03:23:46;;;;;;;0.10;0.10;;;-1.50;99.90;;;;;;5103364;27;20108;-92
2023/03/08 03:26:37;;;;;;;0.13;0.13;;;-0.50;99.90;;;;;;5137317;27;20043;-92
2023/03/08 03:29:19;;;;;;;1.90;0.98;;;-1.10;99.90;;;;;;5136275;27;20039;-93
2023/03/08 03:31:47;;;;;;;0.00;0.00;;;-0.40;99.90;;;;;;5086255;27;20043;-92
2023/03/08 03:34:35;;;;;;;0.32;0.30;;;-1.00;99.90;;;;;;5135761;27;20051;-92
2023/03/08 03:37:10;;;;;;;0.75;0.38;;;-1.80;99.90;;;;;;5123538;27;20054;-93
2023/03/08 03:39:41;;;;;;;1.05;0.50;;;-1.90;99.90;;;;;;5102572;27;20053;-92
2023/03/08 03:42:16;;;;;;;0.57;0.50;;;-0.70;99.90;;;;;;5102418;27;20050;-93
2023/03/08 03:44:44;;;;;;;0.57;0.38;;;-0.40;99.90;;;;;;5119767;27;20047;-96
2023/03/08 03:47:35;;;;;;;0.43;0.43;;;-0.70;99.90;;;;;;5135525;27;20047;-93
2023/03/08 03:50:05;;;;;;;0.30;0.30;;;-1.80;99.90;;;;;;5101880;27;20043;-92
2023/03/08 03:52:43;;;;;;;1.48;0.40;;;-0.50;99.90;;;;;;5137043;27;20050;-92
2023/03/08 03:55:26;;;;;;;0.45;0.45;;;-1.90;99.90;;;;;;5136300;27;20047;-94
2023/03/08 03:57:59;;;;;;;0.75;0.75;;;-1.70;99.90;;;;;;5101687;27;20055;-93
2023/03/08 04:00:43;;;;;;;1.20;0.75;;;-1.90;99.90;;;;;;5085277;27;20106;-92
2023/03/08 04:03:14;;;;;;;1.42;0.63;;;-1.80;99.90;;;;;;5135373;27;20062;-93
2023/03/08 04:05:43;;;;;;;0.80;0.60;;;-0.60;99.90;;;;;;5135757;27;20047;-92
2023/03/08 04:08:14;;;;;;;0.30;0.30;;;-0.60;99.90;;;;;;5136615;27;20156;-93
2023/03/08 04:10:45;;;;;;;0.30;0.30;;;-0.50;99.90;;;;;;5135813;27;20035;-93
2023/03/08 04:13:20;;;;;;;0.98;0.88;;;-2.80;99.90;;;;;;5135558;27;20126;-92
2023/03/08 04:15:52;;;;;;;1.35;0.30;;;-0.60;99.90;;;;;;5118332;27;20107;-92
2023/03/08 04:18:29;;;;;;;0.52;0.43;;;-0.60;99.90;;;;;;5086974;27;20116;-92
2023/03/08 04:21:03;;;;;;;0.60;0.60;;;-0.60;99.90;;;;;;5085480;27;20047;-92
2023/03/08 04:23:52;;;;;;;0.93;0.93;;;-0.60;99.90;;;;;;5135643;27;20040;-92
2023/03/08 04:26:21;;;;;;;1.25;0.30;;;-2.00;99.90;;;;;;5101515;27;20159;-93
2023/03/08 04:28:54;;;;;;;0.93;0.22;;;-2.20;99.90;;;;;;5134864;27;20045;-92
2023/03/08 04:31:25;;;;;;;4.32;0.77;;;-0.80;99.90;;;;;;5135153;27;20039;-92
2023/03/08 04:33:57;;;;;;;1.45;0.40;;;-2.10;99.90;;;;;;5135398;27;20051;-92
2023/03/08 04:36:28;;;;;;;1.98;0.75;;;-1.80;99.90;;;;;;5134741;27;20379;-92
2023/03/08 04:39:17;;;;;;;0.50;0.43;;;-1.90;99.90;;;;;;5135146;27;20478;-92
2023/03/08 04:41:45;;;;;;;0.43;0.40;;;-2.00;99.90;;;;;;5117628;27;20488;-92
2023/03/08 04:44:13;;;;;;;1.10;0.60;;;-1.30;99.90;;;;;;5100607;27;20558;-94
2023/03/08 04:46:47;;;;;;;0.57;0.57;;;-2.30;99.90;;;;;;5118306;27;20108;-91
2023/03/08 04:49:24;;;;;;;0.30;0.25;;;-1.90;99.90;;;;;;5134632;27;20477;-93
2023/03/08 04:51:55;;;;;;;1.98;0.40;;;-0.70;99.90;;;;;;5084361;27;20047;-92
2023/03/08 04:54:26;;;;;;;0.98;0.68;;;-1.00;99.90;;;;;;5134319;27;20134;-92
2023/03/08 04:56:52;;;;;;;3.05;0.82;;;-2.00;99.90;;;;;;5117489;27;20473;-92
2023/03/08 04:59:37;;;;;;;;;;;;;;;;;;;;;
2023/03/08 05:02:11;;;;;;;0.50;0.50;;;-0.70;99.90;;;;;;5101881;27;20050;-92
2023/03/08 05:04:42;;;;;;;1.05;0.98;;;-1.90;99.90;;;;;;5134458;27;20046;-92
2023/03/08 05:07:11;;;;;;;0.43;0.43;;;-0.60;99.90;;;;;;5134369;27;20058;-92
2023/03/08 05:09:41;;;;;;;0.80;0.68;;;-1.80;99.90;;;;;;5115851;27;20082;-92
2023/03/08 05:12:07;;;;;;;0.63;0.55;;;-1.90;99.90;;;;;;5134605;27;20074;-92
2023/03/08 05:14:36;;;;;;;1.80;0.60;;;-1.90;99.90;;;;;;5091793;28;20126;-91
2023/03/08 05:17:17;;;;;;;1.00;0.63;;;-1.10;99.90;;;;;;5116197;27;20055;-92
2023/03/08 05:19:46;;;;;;;0.40;0.40;;;-1.90;99.90;;;;;;5099927;27;20100;-92
2023/03/08 05:22:19;;;;;;;1.40;0.73;;;-0.60;99.90;;;;;;5099087;27;20122;-92
2023/03/08 05:24:52;;;;;;;0.60;0.60;;;-0.80;99.90;;;;;;5099017;27;20121;-92
2023/03/08 05:27:18;;;;;;;0.85;0.40;;;-3.00;99.90;;;;;;5133663;27;20046;-93
2023/03/08 05:29:44;;;;;;;0.33;0.23;;;-0.70;99.90;;;;;;5099786;27;20039;-92
2023/03/08 05:32:20;;;;;;;1.53;0.80;;;-0.60;99.90;;;;;;5099221;27;20043;-92
2023/03/08 05:34:51;;;;;;;0.85;0.60;;;-1.90;99.90;;;;;;5133997;27;20389;-92
2023/03/08 05:37:29;;;;;;;0.68;0.68;;;-0.90;99.90;;;;;;5133498;27;20515;-95
2023/03/08 05:42:46;;;;;;;0.63;0.50;;;-1.40;99.90;;;;;;5150528;27;20497;-93
2023/03/08 05:45:24;;;;;;;0.53;0.30;;;-3.00;99.90;;;;;;5133684;27;20042;-93
2023/03/08 05:48:09;;;;;;;1.63;0.25;;;-2.10;99.90;;;;;;5134600;27;20042;-92
2023/03/08 05:50:38;;;;;;;0.88;0.73;;;-0.90;99.90;;;;;;5084364;27;20425;-93
2023/03/08 05:53:26;;;;;;;0.68;0.60;;;-2.00;99.90;;;;;;5099508;27;20507;-93
2023/03/08 05:56:13;;;;;;;2.95;0.88;;;-2.10;99.90;;;;;;5098693;27;20409;-93
2023/03/08 05:58:46;;;;;;;2.63;1.33;;;-2.20;99.90;;;;;;5132995;27;20553;-92
2023/03/08 06:01:32;;;;;;;1.05;0.98;;;-1.10;99.90;;;;;;5083115;27;20504;-93
2023/03/08 06:04:07;;;;;;;0.50;0.50;;;-2.10;99.90;;;;;;5083969;28;20119;-93
2023/03/08 06:06:48;;;;;;;;;;;;;;;;;;;;;
2023/03/08 06:09:22;;;;;;;0.70;0.70;;;-2.10;99.90;;;;;;5100791;28;20451;-92
2023/03/08 06:11:57;;;;;;;1.25;0.93;;;-2.10;99.90;;;;;;5099112;28;20461;-93
2023/03/08 06:14:33;;;;;;;0.50;0.50;;;-2.00;99.90;;;;;;5099480;28;20054;-93
2023/03/08 06:17:03;;;;;;;1.05;0.70;;;-1.30;99.90;;;;;;5133384;28;20112;-92
2023/03/08 06:19:38;;;;;;;1.05;1.05;;;-2.30;99.90;;;;;;5133914;28;20134;-92
2023/03/08 06:22:04;;;;;;;1.15;0.98;;;-1.30;99.90;;;;;;5082234;28;20489;-93
2023/03/08 06:24:40;;;;;;;0.70;0.50;;;-2.10;99.90;;;;;;5083773;27;20047;-92
2023/03/08 06:27:31;;;;;;;0.47;0.47;;;-2.10;99.90;;;;;;5120596;27;20083;-92
2023/03/08 06:30:07;;;;;;;0.75;0.68;;;-2.00;99.90;;;;;;5138007;27;20512;-92
2023/03/08 06:32:36;;;;;;;0.57;0.57;;;-0.90;99.90;;;;;;5137311;27;20051;-93
2023/03/08 06:35:05;;;;;;;1.35;0.80;;;-2.00;99.90;;;;;;5104111;27;20054;-92
2023/03/08 06:37:46;;;;;;;;;;;;;;;;;;;;;
2023/03/08 06:40:19;;;;;;;1.55;0.73;;;-1.30;99.90;;;;;;5105420;27;20054;-92
2023/03/08 06:42:48;;;;;;;1.80;0.63;;;-2.60;99.90;;;;;;5103099;27;20043;-91
2023/03/08 06:45:19;;;;;;;1.45;0.70;;;-2.00;99.90;;;;;;5136128;27;20080;-91
2023/03/08 06:47:45;;;;;;;0.70;0.40;;;-1.90;99.90;;;;;;5138095;27;20111;-89
2023/03/08 06:50:14;;;;;;;1.70;1.00;;;-1.00;99.90;;;;;;5138114;27;20043;-92
2023/03/08 06:52:39;;;;;;;0.80;0.60;;;-2.00;99.90;;;;;;5137138;27;20082;-86
2023/03/08 06:55:06;;;;;;;0.80;0.80;;;-1.80;99.90;;;;;;5157005;27;20090;-87
2023/03/08 06:57:32;;;;;;;0.40;0.28;;;-1.80;99.90;;;;;;5119029;27;20039;-84
2023/03/08 07:00:00;;;;;;;1.70;0.88;;;-1.70;99.90;;;;;;5119167;27;20046;-88
2023/03/08 07:02:42;;;;;;;0.80;0.63;;;-0.40;99.90;;;;;;5137109;27;20047;-89
2023/03/08 07:05:16;;;;;;;0.47;0.32;;;-0.20;99.90;;;;;;5136423;27;20060;-88
2023/03/08 07:07:50;;;;;;;0.38;0.32;;;-1.80;99.90;;;;;;5119366;27;20054;-87
2023/03/08 07:10:18;;;;;;;0.88;0.88;;;-2.10;99.90;;;;;;5153954;27;20051;-86
2023/03/08 07:12:47;;;;;;;1.33;0.52;;;-0.40;99.90;;;;;;5136451;27;20082;-88
2023/03/08 07:15:17;;;;;;;1.00;0.90;;;1.30;99.90;;;;;;5156495;27;20082;-87
2023/03/08 07:17:48;;;;;;;0.60;0.55;;;0.40;99.90;;;;;;5118783;27;20039;-87
2023/03/08 07:20:15;;;;;;;0.82;0.82;;;2.30;99.90;;;;;;5118948;27;20040;-86
2023/03/08 07:22:42;;;;;;;0.82;0.68;;;1.70;99.90;;;;;;5136020;27;20042;-85
2023/03/08 07:25:12;;;;;;;1.98;0.52;;;2.50;99.90;;;;;;5118600;27;20050;-86
2023/03/08 07:27:38;;;;;;;1.75;1.33;;;1.10;99.90;;;;;;5135528;27;20036;-86
2023/03/08 07:30:04;;;;;;;1.23;0.90;;;0.90;99.90;;;;;;5135683;27;20055;-85
2023/03/08 07:32:30;;;;;;;0.85;0.57;;;0.80;99.90;;;;;;5118285;27;20478;-89
2023/03/08 07:34:56;;;;;;;1.10;0.83;;;1.00;99.90;;;;;;5117989;27;20050;-85
2023/03/08 07:37:22;;;;;;;0.47;0.47;;;1.40;99.90;;;;;;5135203;27;20068;-84
2023/03/08 07:39:48;;;;;;;0.93;0.80;;;1.60;99.90;;;;;;5117932;27;20039;-85
2023/03/08 07:42:13;;;;;;;0.40;0.40;;;2.00;99.90;;;;;;5118966;27;20134;-85
2023/03/08 07:44:39;;;;;;;1.07;0.70;;;1.40;99.90;;;;;;5101285;27;20507;-84
2023/03/08 07:47:06;;;;;;;0.40;0.40;;;1.70;99.90;;;;;;5135823;27;20043;-84
2023/03/08 07:49:35;;;;;;;0.50;0.50;;;0.50;99.90;;;;;;5135035;27;20108;-85
2023/03/08 07:52:01;;;;;;;0.52;0.52;;;0.40;99.90;;;;;;5135485;27;20031;-86
2023/03/08 07:54:26;;;;;;;0.75;0.75;;;0.30;99.90;;;;;;5101465;27;20469;-86
2023/03/08 07:56:53;;;;;;;0.90;0.90;;;1.10;99.90;;;;;;5152606;27;20065;-85
2023/03/08 07:59:19;;;;;;;;;;;0.30;99.90;;;;;;5101333;27;20039;-83
2023/03/08 08:01:45;;;;;;;0.73;0.73;;;1.10;99.90;;;;;;5100763;27;19946;-87
2023/03/08 08:04:12;;;;;;;1.23;0.60;;;0.50;99.90;;;;;;5152844;27;20138;-86
2023/03/08 08:06:41;;;;;;;1.67;0.85;;;0.40;99.90;;;;;;5100960;27;20401;-86
2023/03/08 08:09:08;;;;;;;0.43;0.43;;;1.00;99.90;;;;;;5134745;27;20397;-86
2023/03/08 08:11:34;;;;;;;1.38;0.47;;;0.40;99.90;;;;;;5116895;27;20047;-87
2023/03/08 08:14:04;;;;;;;1.17;0.90;;;0.40;99.90;;;;;;5118615;27;20092;-87
2023/03/08 09:19:19;;;;;;;;;;;1.90;99.90;;;;;;5119700;27;20047;-92
2023/03/08 09:21:45;;;;;;;0.40;0.40;;;2.10;99.90;;;;;;5104050;27;19919;-93
2023/03/08 09:24:13;;;;;;;2.90;0.80;;;2.20;99.90;;;;;;5134814;27;20401;-92
2023/03/08 09:26:52;;;;;;;1.67;0.60;;;2.20;99.90;;;;;;5101964;27;20568;-93
2023/03/08 09:29:44;;;;;;;1.90;1.02;;;2.90;99.90;;;;;;5118040;27;20046;-91
2023/03/08 09:32:25;;;;;;;0.35;0.35;;;2.40;99.90;;;;;;5120165;27;20511;-93
2023/03/08 09:35:02;;;;;;;0.40;0.38;;;2.30;99.90;;;;;;5102987;27;20047;-92
2023/03/08 09:37:58;;;;;;;;;;;;;;;;;;;;;
2023/03/08 09:40:28;;;;;;;0.85;0.77;;;1.30;99.90;;;;;;5117191;27;20499;-92
2023/03/08 09:43:13;;;;;;;0.55;0.55;;;2.40;99.90;;;;;;5135427;27;20040;-93
2023/03/08 09:48:53;;;;;;;1.27;0.65;;;1.40;99.90;;;;;;5082619;27;20082;-92
2023/03/08 09:51:28;;;;;;;1.00;0.90;;;2.30;99.90;;;;;;5136874;27;20054;-93
2023/03/08 09:54:08;;;;;;;0.73;0.73;;;2.40;99.90;;;;;;5153414;27;20061;-92
2023/03/08 09:57:10;;;;;;;0.63;0.50;;;2.40;99.90;;;;;;5084967;27;20542;-91
2023/03/08 09:59:45;;;;;;;1.52;0.80;;;1.70;99.90;;;;;;5133508;27;20045;-94
2023/03/08 10:02:48;;;;;;;1.48;0.60;;;3.30;99.90;;;;;;5133664;27;20163;-94
2023/03/08 10:05:31;;;;;;;3.55;0.90;;;2.80;99.90;;;;;;5099604;28;20039;-93
2023/03/08 10:08:12;;;;;;;1.05;0.63;;;2.80;99.90;;;;;;5133166;27;20051;-93
2023/03/08 10:11:12;;;;;;;3.38;0.90;;;3.00;99.90;;;;;;5120844;28;20448;-94
2023/03/08 10:13:54;;;;;;;0.55;0.55;;;3.10;99.90;;;;;;5099800;28;20089;-92
2023/03/08 10:16:30;;;;;;;2.22;0.45;;;3.20;99.90;;;;;;5116825;28;20039;-89
2023/03/08 10:19:30;;;;;;;0.40;0.40;;;3.30;99.90;;;;;;5132122;28;20134;-89
2023/03/08 10:22:00;;;;;;;1.73;1.08;;;3.80;99.90;;;;;;5115465;28;20090;-90
2023/03/08 10:25:19;;;;;;;1.38;0.55;;;3.50;99.90;;;;;;5115875;28;20102;-89
2023/03/08 10:27:50;;;;;;;0.52;0.40;;;3.50;99.90;;;;;;5070721;28;20057;-88
2023/03/08 10:30:18;;;;;;;1.90;1.17;;;3.60;99.90;;;;;;5070138;28;20110;-88
2023/03/08 10:32:48;;;;;;;0.60;0.60;;;3.60;99.90;;;;;;5075424;28;20051;-96
2023/03/08 10:35:24;;;;;;;2.50;0.80;;;3.40;99.90;;;;;;5098820;28;20051;-88
2023/03/08 10:38:00;;;;;;;1.58;1.23;;;3.70;99.90;;;;;;5132808;28;20047;-88
2023/03/08 10:40:31;;;;;;;0.63;0.63;;;3.80;99.90;;;;;;5098627;28;20058;-88
2023/03/08 10:43:04;;;;;;;0.75;0.75;;;3.90;99.90;;;;;;5098812;28;20491;-91
2023/03/08 10:45:33;;;;;;;0.70;0.57;;;4.00;99.90;;;;;;5098878;28;20058;-88
2023/03/08 10:48:08;;;;;;;0.52;0.40;;;4.20;99.90;;;;;;5132337;28;20054;-89
2023/03/08 10:50:36;;;;;;;0.88;0.65;;;4.20;99.90;;;;;;5098714;28;20043;-88
2023/03/08 10:53:21;;;;;;;0.75;0.75;;;4.10;99.90;;;;;;5098318;28;20055;-89
2023/03/08 10:55:51;;;;;;;0.73;0.70;;;3.20;99.90;;;;;;5150039;27;20039;-89
2023/03/08 10:58:40;;;;;;;0.50;0.50;;;4.20;99.90;;;;;;5115287;28;20047;-89
2023/03/08 11:01:44;;;;;;;0.80;0.30;;;5.00;99.90;;;;;;5114704;28;20081;-89
2023/03/08 11:04:27;;;;;;;;;;;;;;;;;;;;;
2023/03/08 11:07:08;;;;;;;1.00;0.45;;;4.60;99.90;;;;;;5115642;28;20049;-90
2023/03/08 11:09:40;;;;;;;0.52;0.28;;;4.70;99.90;;;;;;5098876;28;20039;-89
2023/03/08 11:12:28;;;;;;;0.10;0.10;;;4.70;99.90;;;;;;5099877;27;20054;-90
2023/03/08 11:15:14;;;;;;;0.45;0.20;;;5.70;99.90;;;;;;5119414;27;20446;-87
2023/03/08 11:18:12;;;;;;;0.93;0.30;;;4.80;99.90;;;;;;5101972;27;20062;-86
2023/03/08 11:20:52;;;;;;;0.15;0.10;;;4.80;99.90;;;;;;5119826;27;20400;-91
2023/03/08 11:23:31;;;;;;;0.10;0.10;;;4.80;99.90;;;;;;5135739;27;20035;-87
2023/03/08 11:29:34;;;;;;;0.10;0.10;;;4.70;99.90;;;;;;5094006;28;20082;-89
2023/03/08 11:35:51;;;;;;;0.20;0.20;;;4.70;99.90;;;;;;5094313;28;20153;-85
2023/03/08 11:38:24;;;;;;;0.20;0.10;;;4.80;99.90;;;;;;5111041;28;20056;-91
2023/03/08 11:41:10;;;;;;;0.03;0.03;;;4.90;99.90;;;;;;5094438;28;20055;-90
2023/03/08 11:44:01;;;;;;;0.20;0.20;;;4.80;99.90;;;;;;5094415;28;20147;-90
2023/03/08 11:47:58;;;;;;;0.00;0.00;;;4.70;99.90;;;;;;5034412;28;20088;-90
2023/03/08 12:02:19;;;;;;;0.30;0.10;;;4.40;99.90;;;;;;5052404;28;20099;-90
2023/03/08 12:16:38;;;;;;;0.40;0.40;;;4.40;99.90;;;;;;5136624;27;20052;-91
2023/03/08 12:23:41;;;;;;;0.40;0.20;;;4.20;99.90;;;;;;5107625;27;20092;-89
2023/03/08 12:30:36;;;;;;;0.17;0.17;;;4.20;99.90;;;;;;5113561;28;20058;-90
2023/03/08 12:36:44;;;;;;;1.25;0.20;;;4.20;99.90;;;;;;5113178;28;20026;-86
2023/03/08 12:43:10;;;;;;;0.45;0.08;;;4.10;99.90;;;;;;5079928;28;20043;-86
2023/03/08 12:45:37;;;;;;;0.10;0.10;;;4.20;99.90;;;;;;5112524;28;20044;-88
2023/03/08 12:48:03;;;;;;;0.03;0.03;;;4.20;99.90;;;;;;5112515;28;20047;-88
2023/03/08 12:50:35;;;;;;;1.30;0.10;;;4.20;99.90;;;;;;5079270;28;20046;-89
2023/03/08 12:53:02;;;;;;;0.52;0.20;;;4.20;99.90;;;;;;5095831;28;20157;-87
2023/03/08 12:55:32;;;;;;;0.60;0.50;;;4.20;99.90;;;;;;5046511;28;20051;-87
2023/03/08 12:58:01;;;;;;;0.17;0.03;;;4.20;99.90;;;;;;5112907;28;20444;-87
2023/03/08 13:00:34;;;;;;;0.20;0.10;;;4.30;99.90;;;;;;5111966;27;20047;-87
2023/03/08 13:14:31;;;;;;;0.10;0.10;;;4.30;99.90;;;;;;5095324;28;20073;-87
2023/03/08 13:24:48;;;;;;;0.13;0.13;;;4.30;99.90;;;;;;5068475;28;20147;-86
2023/03/08 13:27:47;;;;;;;1.17;0.08;;;4.20;99.90;;;;;;5019089;28;20049;-86
2023/03/08 13:30:18;;;;;;;0.20;0.20;;;4.20;99.90;;;;;;5035865;28;20135;-86
2023/03/08 13:32:44;;;;;;;0.52;0.20;;;4.20;99.90;;;;;;5053885;28;20152;-86
2023/03/08 13:35:15;;;;;;;1.17;0.60;;;4.40;99.90;;;;;;5035681;28;20134;-87
2023/03/08 13:37:41;;;;;;;0.55;0.55;;;4.40;99.90;;;;;;5019017;28;20099;-86
2023/03/08 13:40:20;;;;;;;0.30;0.30;;;4.10;99.90;;;;;;5019051;28;20072;-86
2023/03/08 13:43:07;;;;;;;0.65;0.65;;;4.00;99.90;;;;;;5019703;28;20461;-86
2023/03/08 13:45:33;;;;;;;0.43;0.43;;;4.10;99.90;;;;;;5003166;28;20049;-86
2023/03/08 13:48:01;;;;;;;2.90;0.55;;;4.10;99.90;;;;;;5035765;28;20049;-87
2023/03/08 13:50:37;;;;;;;0.20;0.20;;;4.10;99.90;;;;;;5020298;28;20052;-88
2023/03/08 13:53:22;;;;;;;0.20;0.20;;;4.10;99.90;;;;;;5052001;28;20534;-88
2023/03/08 13:59:50;;;;;;;0.45;0.17;;;4.00;99.90;;;;;;5091682;28;20043;-88
2023/03/08 14:14:26;;;;;;;0.30;0.30;;;4.10;99.90;;;;;;5091013;28;20484;-88
2023/03/08 14:25:23;;;;;;;0.35;0.20;;;4.10;99.90;;;;;;5090826;28;20429;-88
2023/03/08 14:36:18;;;;;;;0.90;0.30;;;4.20;99.90;;;;;;5111989;28;20038;-88
2023/03/08 15:16:37;;;;;;;0.10;0.10;;;4.40;99.90;;;;;;5115879;28;20439;-88
2023/03/08 15:22:47;;;;;;;0.47;0.20;;;4.40;99.90;;;;;;5116822;28;20034;-89
2023/03/08 15:25:23;;;;;;;0.00;0.00;;;4.40;99.90;;;;;;5133674;27;20047;-86
2023/03/08 15:28:42;;;;;;;0.28;0.28;;;4.40;99.90;;;;;;5093617;28;20127;-86
2023/03/08 15:34:48;;;;;;;0.25;0.25;;;4.30;99.90;;;;;;5094434;28;20035;-86
2023/03/08 15:37:14;;;;;;;0.20;0.20;;;4.30;99.90;;;;;;5060844;28;20433;-86
2023/03/08 15:39:40;;;;;;;0.17;0.17;;;4.30;99.90;;;;;;5077904;28;20047;-86
2023/03/08 15:42:38;;;;;;;0.43;0.40;;;4.30;99.90;;;;;;5061299;28;20059;-86
2023/03/08 15:55:56;;;;;;;0.10;0.10;;;4.00;99.90;;;;;;5093618;28;20105;-89
2023/03/08 15:58:21;;;;;;;1.92;0.22;;;4.00;99.90;;;;;;5080159;28;20140;-87
2023/03/08 16:00:47;;;;;;;0.27;0.10;;;3.90;99.90;;;;;;5081209;28;20074;-86
2023/03/08 16:03:13;;;;;;;0.90;0.13;;;4.30;99.90;;;;;;5064838;28;20048;-87
2023/03/08 16:05:39;;;;;;;0.10;0.10;;;3.90;99.90;;;;;;5064140;28;20281;-88
2023/03/08 16:08:05;;;;;;;1.10;0.40;;;3.90;99.90;;;;;;5080808;28;20130;-90
2023/03/08 16:10:39;;;;;;;0.40;0.20;;;3.70;99.90;;;;;;5081420;28;20098;-91
2023/03/08 16:13:07;;;;;;;0.57;0.20;;;3.70;99.90;;;;;;5100505;28;20519;-89
2023/03/08 16:15:33;;;;;;;0.08;0.08;;;3.70;99.90;;;;;;5080729;28;20047;-87
2023/03/08 16:17:59;;;;;;;0.10;0.00;;;3.70;99.90;;;;;;5064135;28;20044;-90
2023/03/08 16:20:26;;;;;;;0.10;0.10;;;3.70;99.90;;;;;;5080294;28;20098;-86
2023/03/08 16:22:53;;;;;;;0.38;0.38;;;3.60;99.90;;;;;;5080837;28;20047;-87
2023/03/08 16:25:21;;;;;;;;;;;3.90;99.90;;;;;;5098114;28;20035;-87
2023/03/08 16:27:51;;;;;;;0.47;0.47;;;3.70;99.90;;;;;;5083534;27;20400;-87
2023/03/08 16:34:00;;;;;;;0.52;0.22;;;3.60;99.90;;;;;;5135780;27;20034;-85
2023/03/08 16:36:26;;;;;;;0.55;0.15;;;3.60;99.90;;;;;;5100466;27;20043;-82
2023/03/08 16:38:52;;;;;;;0.47;0.10;;;3.50;99.90;;;;;;5134734;27;20054;-87
2023/03/08 16:41:18;;;;;;;0.20;0.20;;;3.70;99.90;;;;;;5135026;27;20039;-87
2023/03/08 16:43:44;;;;;;;2.17;1.20;;;3.50;99.90;;;;;;5101066;27;20078;-87
2023/03/08 16:46:29;;;;;;;0.07;0.07;;;3.40;99.90;;;;;;5100600;27;20081;-86
2023/03/08 16:48:55;;;;;;;0.00;0.00;;;3.40;99.90;;;;;;5134076;27;20039;-87
2023/03/08 16:51:23;;;;;;;0.10;0.10;;;3.40;99.90;;;;;;5117483;27;20054;-88
2023/03/08 16:53:50;;;;;;;0.10;0.10;;;3.30;99.90;;;;;;5100074;27;20043;-86
2023/03/08 16:56:23;;;;;;;0.52;0.20;;;3.30;99.90;;;;;;5100129;27;20047;-86
2023/03/08 16:58:49;;;;;;;0.20;0.20;;;3.30;99.90;;;;;;5100481;27;20055;-86
2023/03/08 17:01:17;;;;;;;1.40;0.47;;;3.60;99.90;;;;;;5099500;27;20047;-90
2023/03/08 17:03:42;;;;;;;1.38;0.20;;;4.00;99.90;;;;;;5133006;27;20296;-87
2023/03/08 17:06:09;;;;;;;0.20;0.20;;;3.40;99.90;;;;;;5116870;27;20092;-87
2023/03/08 17:08:37;;;;;;;0.75;0.35;;;3.20;99.90;;;;;;5098965;28;20043;-87
2023/03/08 17:11:04;;;;;;;1.55;0.70;;;3.20;99.90;;;;;;5116974;27;20051;-86
2023/03/08 17:13:33;;;;;;;0.00;0.00;;;3.20;99.90;;;;;;5117075;27;20566;-87
2023/03/08 17:15:58;;;;;;;0.20;0.10;;;3.20;99.90;;;;;;5117263;27;20130;-89
2023/03/08 17:18:24;;;;;;;0.63;0.63;;;3.20;99.90;;;;;;5099982;27;20130;-83
2023/03/08 17:20:51;;;;;;;0.70;0.23;;;3.10;99.90;;;;;;5099523;27;20471;-89
2023/03/08 17:23:20;;;;;;;;;;;3.10;99.90;;;;;;5116900;27;20405;-86
2023/03/08 17:25:46;;;;;;;0.30;0.30;;;3.10;99.90;;;;;;5151606;27;19923;-87
2023/03/08 17:28:14;;;;;;;0.50;0.10;;;3.70;99.90;;;;;;5133096;27;20477;-88
2023/03/08 17:30:43;;;;;;;0.30;0.22;;;3.70;99.90;;;;;;5099724;27;20040;-87
2023/03/08 17:33:11;;;;;;;0.67;0.53;;;3.00;99.90;;;;;;5099528;27;20047;-89
2023/03/08 17:35:43;;;;;;;0.55;0.17;;;3.00;99.90;;;;;;5132561;27;20122;-85
2023/03/08 17:38:29;;;;;;;0.98;0.52;;;3.00;99.90;;;;;;5115241;27;20043;-89
2023/03/08 17:48:21;;;;;;;0.93;0.65;;;2.90;99.90;;;;;;5133508;27;20022;-89
2023/03/08 18:01:37;;;;;;;0.45;0.08;;;2.70;99.90;;;;;;5109526;27;20533;-89